Time;durP1;ratioP1;P1;durP2;ratioP2;P2;SDS_P1;SDS_P2;PMS_P1;PMS_P2;Temp;Humidity;BMP_temperature;BMP_pressure;BME280_temperature;BME280_humidity;BME280_pressure;Samples;Min_cycle;Max_cycle;Signal;HPM_P1;HPM_P2
2021/10/02 00:34:21;;;;;;;5.8;3.4;;;;;;;;;;;;;
2021/10/02 00:36:20;;;;;;;4.1;3.1;;;;;;;;;;;;;
2021/10/02 00:41:17;;;;;;;7.3;3.1;;;;;;;;;;;;;
2021/10/02 00:45:46;;;;;;;6.2;3.8;;;;;;;;;;;;;
2021/10/02 00:48:11;;;;;;;5.1;3.4;;;;;;;;;;;;;
2021/10/02 00:50:37;;;;;;;4.1;3.5;;;;;;;;;;;;;
2021/10/02 00:53:02;;;;;;;4.2;3.2;;;;;;;;;;;;;
2021/10/02 00:55:27;;;;;;;4.1;3.1;;;;;;;;;;;;;
2021/10/02 00:57:52;;;;;;;3.8;2.9;;;;;;;;;;;;;
2021/10/02 01:00:17;;;;;;;4.3;3.1;;;;;;;;;;;;;
2021/10/02 01:02:42;;;;;;;6.6;4;;;;;;;;;;;;;
2021/10/02 01:05:18;;;;;;;4.6;3.5;;;;;;;;;;;;;
2021/10/02 01:07:43;;;;;;;4.1;3.4;;;;;;;;;;;;;
2021/10/02 01:10:11;;;;;;;5;3.5;;;;;;;;;;;;;
2021/10/02 01:12:34;;;;;;;4.6;3.3;;;;;;;;;;;;;
2021/10/02 01:14:59;;;;;;;5;3.1;;;;;;;;;;;;;
2021/10/02 01:17:24;;;;;;;4.5;3.1;;;;;;;;;;;;;
2021/10/02 01:19:49;;;;;;;5.3;3.3;;;;;;;;;;;;;
2021/10/02 01:22:14;;;;;;;4;3.1;;;;;;;;;;;;;
2021/10/02 01:24:39;;;;;;;3.7;3.1;;;;;;;;;;;;;
2021/10/02 01:27:07;;;;;;;3.3;2.8;;;;;;;;;;;;;
2021/10/02 01:29:29;;;;;;;2.8;2.5;;;;;;;;;;;;;
2021/10/02 01:32:02;;;;;;;4;3;;;;;;;;;;;;;
2021/10/02 01:34:23;;;;;;;3.4;2.8;;;;;;;;;;;;;
2021/10/02 01:36:51;;;;;;;3.6;2.8;;;;;;;;;;;;;
2021/10/02 01:48:50;;;;;;;3.2;2.8;;;;;;;;;;;;;
2021/10/02 01:51:16;;;;;;;3.8;2.8;;;;;;;;;;;;;
2021/10/02 01:53:42;;;;;;;4.7;3.1;;;;;;;;;;;;;
2021/10/02 01:56:06;;;;;;;5;3.1;;;;;;;;;;;;;
2021/10/02 01:58:32;;;;;;;4.5;2.8;;;;;;;;;;;;;
2021/10/02 02:00:56;;;;;;;5.3;3.3;;;;;;;;;;;;;
2021/10/02 02:03:21;;;;;;;5.3;3;;;;;;;;;;;;;
2021/10/02 02:05:46;;;;;;;4.3;3;;;;;;;;;;;;;
2021/10/02 02:08:12;;;;;;;3.9;2.9;;;;;;;;;;;;;
2021/10/02 02:10:37;;;;;;;3.7;2.9;;;;;;;;;;;;;
2021/10/02 02:13:02;;;;;;;5.3;3.1;;;;;;;;;;;;;
2021/10/02 02:15:27;;;;;;;5.6;3.6;;;;;;;;;;;;;
2021/10/02 02:17:52;;;;;;;5;3.2;;;;;;;;;;;;;
2021/10/02 02:20:19;;;;;;;3.3;3;;;;;;;;;;;;;
2021/10/02 02:22:44;;;;;;;4;3;;;;;;;;;;;;;
2021/10/02 02:25:10;;;;;;;3.8;3;;;;;;;;;;;;;
2021/10/02 02:27:35;;;;;;;4.9;3.2;;;;;;;;;;;;;
2021/10/02 02:29:59;;;;;;;4.5;2.9;;;;;;;;;;;;;
2021/10/02 02:32:25;;;;;;;3.3;2.8;;;;;;;;;;;;;
2021/10/02 02:34:50;;;;;;;4.3;2.9;;;;;;;;;;;;;
2021/10/02 02:37:15;;;;;;;4.5;2.9;;;;;;;;;;;;;
2021/10/02 02:39:40;;;;;;;6.6;3.3;;;;;;;;;;;;;
2021/10/02 02:42:05;;;;;;;3.1;2.6;;;;;;;;;;;;;
2021/10/02 02:44:30;;;;;;;3.3;2.9;;;;;;;;;;;;;
2021/10/02 02:46:56;;;;;;;3.9;2.7;;;;;;;;;;;;;
2021/10/02 02:49:20;;;;;;;4;3;;;;;;;;;;;;;
2021/10/02 02:51:45;;;;;;;4.2;2.9;;;;;;;;;;;;;
2021/10/02 02:54:11;;;;;;;3.7;2.7;;;;;;;;;;;;;
2021/10/02 02:56:38;;;;;;;3.4;2.5;;;;;;;;;;;;;
2021/10/02 02:59:01;;;;;;;4.5;3;;;;;;;;;;;;;
2021/10/02 03:01:26;;;;;;;4.8;2.7;;;;;;;;;;;;;
2021/10/02 03:03:51;;;;;;;3.4;2.5;;;;;;;;;;;;;
2021/10/02 03:06:18;;;;;;;3.5;2.7;;;;;;;;;;;;;
2021/10/02 03:08:41;;;;;;;5.2;2.8;;;;;;;;;;;;;
2021/10/02 03:11:06;;;;;;;4.7;2.7;;;;;;;;;;;;;
2021/10/02 03:13:31;;;;;;;4.3;2.7;;;;;;;;;;;;;
2021/10/02 03:15:57;;;;;;;4.5;2.7;;;;;;;;;;;;;
2021/10/02 03:18:22;;;;;;;5.1;3;;;;;;;;;;;;;
2021/10/02 03:20:47;;;;;;;4.2;3.2;;;;;;;;;;;;;
2021/10/02 03:23:13;;;;;;;3.5;2.9;;;;;;;;;;;;;
2021/10/02 03:25:37;;;;;;;3.7;2.6;;;;;;;;;;;;;
2021/10/02 03:28:02;;;;;;;4;2.8;;;;;;;;;;;;;
2021/10/02 03:30:28;;;;;;;4.9;2.8;;;;;;;;;;;;;
2021/10/02 03:32:53;;;;;;;3.8;2.8;;;;;;;;;;;;;
2021/10/02 03:35:18;;;;;;;4.4;2.8;;;;;;;;;;;;;
2021/10/02 03:37:43;;;;;;;3.9;2.8;;;;;;;;;;;;;
2021/10/02 03:40:09;;;;;;;3.4;2.9;;;;;;;;;;;;;
2021/10/02 03:42:33;;;;;;;3.9;2.9;;;;;;;;;;;;;
2021/10/02 03:44:58;;;;;;;4.9;2.9;;;;;;;;;;;;;
2021/10/02 03:47:24;;;;;;;3.5;2.6;;;;;;;;;;;;;
2021/10/02 03:49:49;;;;;;;4.5;2.9;;;;;;;;;;;;;
2021/10/02 03:52:15;;;;;;;4.8;3;;;;;;;;;;;;;
2021/10/02 03:54:40;;;;;;;5.8;2.8;;;;;;;;;;;;;
2021/10/02 03:57:05;;;;;;;5;2.7;;;;;;;;;;;;;
2021/10/02 03:59:30;;;;;;;3.7;2.8;;;;;;;;;;;;;
2021/10/02 04:02:31;;;;;;;2.9;2.4;;;;;;;11.18;92.46094;939.1055;;;;
2021/10/02 04:04:56;;;;;;;4.9;3.3;;;;;;;11.07;93.14453;939.1476;;;;
2021/10/02 04:07:22;;;;;;;3.8;2.8;;;;;;;10.88;94.30566;939.1193;;;;
2021/10/02 04:09:47;;;;;;;6.5;2.8;;;;;;;10.84;94.89063;939.1667;;;;
2021/10/02 04:12:14;;;;;;;5.4;2.9;;;;;;;10.89;94.66016;939.1273;;;;
2021/10/02 04:14:40;;;;;;;3.1;2.8;;;;;;;10.91;94.09473;939.1236;;;;
2021/10/02 04:17:05;;;;;;;3;2.7;;;;;;;10.88;93.92871;939.1735;;;;
2021/10/02 04:19:31;;;;;;;3.6;2.8;;;;;;;10.89;93.81445;939.1258;;;;
2021/10/02 04:21:57;;;;;;;4;3.1;;;;;;;10.99;93.0498;939.0932;;;;
2021/10/02 04:24:25;;;;;;;5.5;3.1;;;;;;;11.01;93.05371;939.1395;;;;
2021/10/02 04:26:48;;;;;;;3.6;2.5;;;;;;;11.07;92.63086;939.0982;;;;
2021/10/02 04:29:14;;;;;;;3.7;2.6;;;;;;;11.09;92.37305;939.1454;;;;
2021/10/02 04:31:39;;;;;;;3.1;2.8;;;;;;;11.18;92.00391;939.0928;;;;
2021/10/02 04:34:05;;;;;;;4.5;2.8;;;;;;;11.22;91.26855;939.1492;;;;
2021/10/02 04:36:31;;;;;;;4.5;2.9;;;;;;;11.23;90.75391;939.1532;;;;
2021/10/02 04:38:56;;;;;;;3.8;2.8;;;;;;;11.24;90.9082;939.1445;;;;
2021/10/02 04:41:24;;;;;;;5.3;3.2;;;;;;;11.21;90.94824;939.1189;;;;
2021/10/02 04:43:49;;;;;;;4.7;2.9;;;;;;;11.12;91.37305;939.1258;;;;
2021/10/02 04:46:16;;;;;;;4.9;3;;;;;;;11.1;91.83594;939.147;;;;
2021/10/02 04:48:41;;;;;;;5.5;3.2;;;;;;;11.15;91.43555;939.1707;;;;
2021/10/02 04:51:11;;;;;;;5.4;3.2;;;;;;;11.11;91.5332;939.1433;;;;
2021/10/02 04:53:39;;;;;;;4.5;2.7;;;;;;;11.21;90.83008;939.183;;;;
2021/10/02 04:56:06;;;;;;;3.6;2.8;;;;;;;11.18;90.74414;939.1199;;;;
2021/10/02 04:58:29;;;;;;;6.6;3;;;;;;;11.14;90.88477;939.1386;;;;
2021/10/02 05:00:55;;;;;;;4.2;2.8;;;;;;;11.08;91.20313;939.1572;;;;
2021/10/02 05:03:20;;;;;;;6.3;3.1;;;;;;;10.98;92.1543;939.1944;;;;
2021/10/02 05:05:46;;;;;;;3.6;2.7;;;;;;;10.98;92.00781;939.2206;;;;
2021/10/02 05:08:11;;;;;;;5;2.7;;;;;;;11.01;91.96777;939.2958;;;;
2021/10/02 05:10:38;;;;;;;6;2.9;;;;;;;11.01;91.7041;939.2711;;;;
2021/10/02 05:13:03;;;;;;;5.4;3.1;;;;;;;10.89;92.13672;939.3003;;;;
2021/10/02 05:15:30;;;;;;;4.3;3.2;;;;;;;10.75;92.98535;939.3663;;;;
2021/10/02 05:17:55;;;;;;;6.3;3.7;;;;;;;10.81;93.79883;939.3616;;;;
2021/10/02 05:20:23;;;;;;;3.8;2.8;;;;;;;10.85;93.00684;939.3628;;;;
2021/10/02 05:22:47;;;;;;;4.7;2.8;;;;;;;10.92;93;939.4377;;;;
2021/10/02 05:25:13;;;;;;;4.7;3;;;;;;;10.79;92.9248;939.428;;;;
2021/10/02 05:27:38;;;;;;;5;2.6;;;;;;;10.61;94.53027;939.4783;;;;
2021/10/02 05:30:04;;;;;;;4;3.2;;;;;;;10.61;94.99902;939.4397;;;;
2021/10/02 05:32:29;;;;;;;4.7;3;;;;;;;10.64;94.9248;939.4981;;;;
2021/10/02 05:34:55;;;;;;;5.2;2.8;;;;;;;10.71;94.36035;939.5195;;;;
2021/10/02 05:37:20;;;;;;;3.9;2.9;;;;;;;10.81;93.66211;939.4109;;;;
2021/10/02 05:39:47;;;;;;;5.1;3.1;;;;;;;10.94;93.02637;939.4576;;;;
2021/10/02 05:42:11;;;;;;;4.1;3.1;;;;;;;11.12;91.73926;939.4422;;;;
2021/10/02 05:44:37;;;;;;;3.3;2.6;;;;;;;11.02;91.80957;939.481;;;;
2021/10/02 05:47:02;;;;;;;4.6;2.9;;;;;;;11.09;91.79004;939.4442;;;;
2021/10/02 05:49:30;;;;;;;7;3.1;;;;;;;11.18;90.8125;939.355;;;;
2021/10/02 05:51:55;;;;;;;4.1;3.1;;;;;;;11.19;90.67969;939.3719;;;;
2021/10/02 05:54:20;;;;;;;5.8;3;;;;;;;11.33;90.11328;939.3525;;;;
2021/10/02 05:56:46;;;;;;;4.9;2.7;;;;;;;11.45;89.89746;939.3848;;;;
2021/10/02 05:59:11;;;;;;;4.4;2.6;;;;;;;11.66;88.79492;939.3898;;;;
2021/10/02 06:01:36;;;;;;;5.1;2.7;;;;;;;11.76;88.06152;939.3642;;;;
2021/10/02 06:04:01;;;;;;;8.6;2.9;;;;;;;11.77;88.34961;939.3109;;;;
2021/10/02 06:06:26;;;;;;;4.7;2.2;;;;;;;11.96;87.65527;939.3565;;;;
2021/10/02 06:08:51;;;;;;;4.9;2.7;;;;;;;11.85;87.99023;939.308;;;;
2021/10/02 06:11:18;;;;;;;4.3;2.6;;;;;;;11.76;88.36914;939.2964;;;;
2021/10/02 06:13:43;;;;;;;4.4;2.9;;;;;;;11.72;89.18848;939.313;;;;
2021/10/02 06:16:09;;;;;;;4.9;2.5;;;;;;;11.84;89.04004;939.3198;;;;
2021/10/02 06:18:34;;;;;;;3.6;2.5;;;;;;;11.98;88.15332;939.3423;;;;
2021/10/02 06:20:59;;;;;;;4.3;2.3;;;;;;;12.02;87.70215;939.3251;;;;
2021/10/02 06:23:26;;;;;;;4.9;3.1;;;;;;;11.88;88.50977;939.3145;;;;
2021/10/02 06:25:51;;;;;;;5;2.6;;;;;;;11.83;88.84375;939.2703;;;;
2021/10/02 06:28:16;;;;;;;4.9;2.5;;;;;;;11.73;89.18945;939.2628;;;;
2021/10/02 06:30:44;;;;;;;3.9;2.3;;;;;;;11.82;89.15137;939.3078;;;;
2021/10/02 06:33:09;;;;;;;3;2.4;;;;;;;12.01;88.0791;939.2988;;;;
2021/10/02 06:35:34;;;;;;;4.7;2.4;;;;;;;12.08;88.13965;939.3391;;;;
2021/10/02 06:37:59;;;;;;;2.9;2.5;;;;;;;12.41;87.80371;939.3304;;;;
2021/10/02 06:40:24;;;;;;;3;2.3;;;;;;;12.78;85.25098;939.3163;;;;
2021/10/02 06:42:50;;;;;;;5.3;2.6;;;;;;;12.71;85.08594;939.2898;;;;
2021/10/02 06:45:15;;;;;;;4.2;2.9;;;;;;;13.01;84.65137;939.2875;;;;
2021/10/02 06:47:40;;;;;;;4.9;2.5;;;;;;;13.15;83.75;939.2968;;;;
2021/10/02 06:50:06;;;;;;;5.3;3;;;;;;;13.1;84.75;939.2975;;;;
2021/10/02 06:52:31;;;;;;;4.7;2.9;;;;;;;13.27;84.07129;939.3503;;;;
2021/10/02 06:54:58;;;;;;;6.9;2.6;;;;;;;13.18;83.42188;939.3172;;;;
2021/10/02 06:57:23;;;;;;;5.1;2.6;;;;;;;13.41;82.98438;939.2784;;;;
2021/10/02 06:59:49;;;;;;;4.6;2.7;;;;;;;13.65;81.46484;939.2437;;;;
2021/10/02 07:02:14;;;;;;;4.2;2.2;;;;;;;13.91;80.67383;939.286;;;;
2021/10/02 07:04:40;;;;;;;3.5;2.3;;;;;;;14.09;79.41797;939.3044;;;;
2021/10/02 07:07:05;;;;;;;3.2;2.3;;;;;;;14.18;79.12207;939.2929;;;;
2021/10/02 07:09:31;;;;;;;2.8;2.3;;;;;;;14.09;78.62305;939.2531;;;;
2021/10/02 07:11:56;;;;;;;5;2.7;;;;;;;14.02;80.34863;939.2701;;;;
2021/10/02 07:14:23;;;;;;;2.1;1.9;;;;;;;14.26;78.63184;939.2625;;;;
2021/10/02 07:16:48;;;;;;;2.8;1.8;;;;;;;14.34;77.83984;939.2662;;;;
2021/10/02 07:19:14;;;;;;;3.9;2.3;;;;;;;14.5;77.83398;939.2446;;;;
2021/10/02 07:21:39;;;;;;;3.2;2;;;;;;;14.66;76.36328;939.2514;;;;
2021/10/02 07:24:05;;;;;;;3.8;2.3;;;;;;;14.52;77.53809;939.2502;;;;
2021/10/02 07:26:30;;;;;;;2.5;1.7;;;;;;;14.81;75.75391;939.2379;;;;
2021/10/02 07:28:56;;;;;;;3.1;2.2;;;;;;;14.96;74.87109;939.1868;;;;
2021/10/02 07:31:22;;;;;;;2.9;2.1;;;;;;;15.41;75.22266;939.1739;;;;
2021/10/02 07:33:48;;;;;;;4;2.1;;;;;;;15.7;73.4248;939.1138;;;;
2021/10/02 07:36:13;;;;;;;2.8;2;;;;;;;15.98;72.78027;939.0961;;;;
2021/10/02 07:38:38;;;;;;;2.7;1.9;;;;;;;16.12;70.21191;939.0717;;;;
2021/10/02 07:41:03;;;;;;;2.1;1.9;;;;;;;15.86;70.10059;939.066;;;;
2021/10/02 07:43:28;;;;;;;3.5;2;;;;;;;16.14;70.66602;939.049;;;;
2021/10/02 07:45:53;;;;;;;2.2;1.8;;;;;;;16.48;68.94922;938.9847;;;;
2021/10/02 07:48:19;;;;;;;2.1;1.5;;;;;;;16.81;69.19727;939.0133;;;;
2021/10/02 07:50:44;;;;;;;3.1;1.8;;;;;;;16.96;68.27051;938.9624;;;;
2021/10/02 07:53:10;;;;;;;2.1;1.7;;;;;;;17.62;65.57813;938.8962;;;;
2021/10/02 07:55:35;;;;;;;1.7;1.6;;;;;;;18.22;63.97168;938.865;;;;
2021/10/02 07:58:01;;;;;;;2.2;1.6;;;;;;;18.48;62.56641;938.7813;;;;
2021/10/02 08:00:26;;;;;;;2.2;1.8;;;;;;;19.06;60.42676;938.816;;;;
2021/10/02 08:02:54;;;;;;;2.3;1.6;;;;;;;19.18;57.6709;938.7899;;;;
2021/10/02 08:05:18;;;;;;;3.1;1.7;;;;;;;19.8;56.36328;938.752;;;;
2021/10/02 08:07:44;;;;;;;2;1.5;;;;;;;20.36;54.80078;938.738;;;;
2021/10/02 08:10:09;;;;;;;2.4;1.6;;;;;;;20.66;53.01465;938.677;;;;
2021/10/02 08:12:34;;;;;;;1.7;1.3;;;;;;;20.79;52.18848;938.7025;;;;
2021/10/02 08:15:00;;;;;;;1.5;1.1;;;;;;;22.52;48.12207;938.702;;;;
2021/10/02 08:17:26;;;;;;;1.3;1.1;;;;;;;22.36;45.91016;938.7885;;;;
2021/10/02 08:19:50;;;;;;;2.1;1.4;;;;;;;22.68;46.94238;938.7305;;;;
2021/10/02 08:22:15;;;;;;;1.3;1.2;;;;;;;23.24;45.84961;938.7171;;;;
2021/10/02 08:24:41;;;;;;;3;1.4;;;;;;;24.53;42.61035;938.6848;;;;
2021/10/02 08:27:05;;;;;;;1.5;1.4;;;;;;;25.27;41.95996;938.8153;;;;
2021/10/02 08:29:31;;;;;;;1.9;1.4;;;;;;;25.88;39.5957;938.8014;;;;
2021/10/02 08:31:55;;;;;;;1.4;1.3;;;;;;;24.93;40.89063;938.7555;;;;
2021/10/02 08:34:21;;;;;;;2.2;1.5;;;;;;;25.68;39.36426;938.7425;;;;
2021/10/02 08:36:46;;;;;;;1.5;1.4;;;;;;;26.24;38.59668;938.7256;;;;
2021/10/02 08:39:11;;;;;;;1.4;1.3;;;;;;;24.83;41;938.738;;;;
2021/10/02 08:41:36;;;;;;;1.5;1.4;;;;;;;24.77;42.30273;938.7;;;;
2021/10/02 08:44:01;;;;;;;2.2;1.4;;;;;;;24.33;43.52148;938.6404;;;;
2021/10/02 08:46:26;;;;;;;3.7;1.8;;;;;;;23.77;45.25488;938.6256;;;;
2021/10/02 08:48:51;;;;;;;1.6;1.5;;;;;;;23.17;47.60352;938.5719;;;;
2021/10/02 08:51:16;;;;;;;2.1;1.7;;;;;;;23.49;45.61523;938.6085;;;;
2021/10/02 08:53:41;;;;;;;1.7;1.6;;;;;;;24.09;46.00684;938.5761;;;;
2021/10/02 08:56:07;;;;;;;2;1.5;;;;;;;24.72;44.43262;938.5768;;;;
2021/10/02 08:58:32;;;;;;;2;1.4;;;;;;;23.35;47.23535;938.5446;;;;
2021/10/02 09:01:00;;;;;;;2.3;1.8;;;;;;;24.04;45.08301;938.5064;;;;
2021/10/02 09:03:24;;;;;;;2.5;1.8;;;;;;;22.55;46.7168;938.4395;;;;
2021/10/02 09:05:50;;;;;;;1.9;1.7;;;;;;;22.84;46.24219;938.3517;;;;
2021/10/02 09:08:15;;;;;;;2.8;2;;;;;;;22.43;47.23145;938.3767;;;;
2021/10/02 09:10:41;;;;;;;4.7;1.9;;;;;;;22.22;48.97949;938.3998;;;;
2021/10/02 09:13:06;;;;;;;2;1.5;;;;;;;21.96;48.91602;938.2957;;;;
2021/10/02 09:15:33;;;;;;;2.5;1.6;;;;;;;22.14;47.56348;938.3142;;;;
2021/10/02 09:17:58;;;;;;;2.2;1.7;;;;;;;22.31;47.88672;938.1898;;;;
2021/10/02 09:20:25;;;;;;;1.9;1.7;;;;;;;21.94;49.53613;938.1486;;;;
2021/10/02 09:22:50;;;;;;;1.7;1.5;;;;;;;21.95;50.68457;938.1174;;;;
2021/10/02 09:25:15;;;;;;;2;1.5;;;;;;;21.89;49.64648;938.0424;;;;
2021/10/02 09:27:40;;;;;;;2.4;1.9;;;;;;;22.54;48.59277;938.0795;;;;
2021/10/02 09:30:06;;;;;;;1.8;1.7;;;;;;;22.28;48.75195;938.0879;;;;
2021/10/02 09:32:30;;;;;;;2.3;1.6;;;;;;;22.48;49.47754;938.0656;;;;
2021/10/02 09:34:55;;;;;;;3.3;1.7;;;;;;;22.28;47.83594;937.9842;;;;
2021/10/02 09:37:20;;;;;;;1.9;1.6;;;;;;;22.03;46.5791;937.9892;;;;
2021/10/02 09:39:48;;;;;;;2.4;1.7;;;;;;;22.27;49.05566;937.918;;;;
2021/10/02 09:42:13;;;;;;;2.6;1.7;;;;;;;22.48;46.87305;937.8889;;;;
2021/10/02 09:44:38;;;;;;;2.4;1.7;;;;;;;22.42;47.85254;937.8645;;;;
2021/10/02 09:47:04;;;;;;;2.1;1.5;;;;;;;22.64;48.31055;937.8017;;;;
2021/10/02 09:49:28;;;;;;;2.3;1.7;;;;;;;22.16;46.46484;937.7707;;;;
2021/10/02 09:51:53;;;;;;;2;1.8;;;;;;;22.2;46.72656;937.7922;;;;
2021/10/02 09:54:20;;;;;;;2;1.7;;;;;;;22.29;47.89648;937.7755;;;;
2021/10/02 09:56:45;;;;;;;2.9;1.8;;;;;;;22.1;46.10645;937.752;;;;
2021/10/02 09:59:10;;;;;;;2.5;1.5;;;;;;;22.18;48.31934;937.6856;;;;
2021/10/02 10:01:36;;;;;;;2.5;2.1;;;;;;;22.2;48.2627;937.6364;;;;
2021/10/02 10:04:03;;;;;;;2.3;1.9;;;;;;;22.23;46.54199;937.6461;;;;
2021/10/02 10:06:27;;;;;;;1.9;1.7;;;;;;;22.1;46.55176;937.6179;;;;
2021/10/02 10:08:52;;;;;;;2.6;1.9;;;;;;;22.05;47.64746;937.5016;;;;
2021/10/02 10:11:17;;;;;;;5.4;2.3;;;;;;;22.23;47.2334;937.5285;;;;
2021/10/02 10:13:42;;;;;;;5.7;2.7;;;;;;;21.83;48.93652;937.4391;;;;
2021/10/02 10:16:07;;;;;;;8.5;3;;;;;;;22.02;47.32813;937.4752;;;;
2021/10/02 10:18:36;;;;;;;6;2.7;;;;;;;22.36;47.2002;937.4053;;;;
2021/10/02 10:21:00;;;;;;;6.2;2.5;;;;;;;22.71;47.66113;937.3784;;;;
2021/10/02 10:23:25;;;;;;;1.8;1.7;;;;;;;22.89;47.37402;937.2243;;;;
2021/10/02 10:25:50;;;;;;;2.7;1.8;;;;;;;23.06;46.51172;937.2316;;;;
2021/10/02 10:28:15;;;;;;;1.9;1.7;;;;;;;23.06;43.92676;937.183;;;;
2021/10/02 10:30:44;;;;;;;1.9;1.7;;;;;;;22.92;44.52246;937.1802;;;;
2021/10/02 10:33:05;;;;;;;2.1;1.9;;;;;;;22.86;46.04395;937.2369;;;;
2021/10/02 10:35:30;;;;;;;2.1;1.9;;;;;;;23.01;47.64551;937.2098;;;;
2021/10/02 10:37:55;;;;;;;2;1.8;;;;;;;22.82;47.83594;937.2352;;;;
2021/10/02 10:40:23;;;;;;;2.2;1.6;;;;;;;22.76;46.20996;937.2581;;;;
2021/10/02 10:42:48;;;;;;;2.8;2;;;;;;;23;45.84766;937.2045;;;;
2021/10/02 10:45:13;;;;;;;2.1;1.8;;;;;;;23.02;47.78809;937.1492;;;;
2021/10/02 10:47:38;;;;;;;2.2;1.8;;;;;;;22.89;46.35254;937.0619;;;;
2021/10/02 10:50:04;;;;;;;1.8;1.7;;;;;;;23.03;45.41602;937.072;;;;
2021/10/02 10:52:30;;;;;;;2;1.8;;;;;;;23.15;44.37109;936.981;;;;
2021/10/02 10:54:55;;;;;;;3.4;1.7;;;;;;;23.48;43.78027;936.9068;;;;
2021/10/02 10:57:20;;;;;;;3.2;1.9;;;;;;;23.5;45.33398;936.8318;;;;
2021/10/02 10:59:47;;;;;;;1.8;1.7;;;;;;;23.53;45.97168;936.8624;;;;
2021/10/02 11:02:12;;;;;;;2;1.7;;;;;;;23.41;46.25391;936.8698;;;;
2021/10/02 11:04:37;;;;;;;2.7;2.3;;;;;;;23.27;44.95801;936.8375;;;;
2021/10/02 11:07:02;;;;;;;4.2;1.9;;;;;;;23.14;46.40234;936.7555;;;;
2021/10/02 11:09:27;;;;;;;2.5;1.9;;;;;;;23.17;44.14844;936.6658;;;;
2021/10/02 11:11:53;;;;;;;3.2;1.8;;;;;;;23.64;42.45508;936.6899;;;;
2021/10/02 11:14:18;;;;;;;2.3;2.1;;;;;;;23.79;44.06934;936.6063;;;;
2021/10/02 11:16:43;;;;;;;2.7;2.1;;;;;;;23.29;46.60547;936.7026;;;;
2021/10/02 11:19:08;;;;;;;2.2;2;;;;;;;23.53;45.04297;936.6331;;;;
2021/10/02 11:21:33;;;;;;;4.5;2.1;;;;;;;23.67;43.66992;936.6375;;;;
2021/10/02 11:24:28;;;;;;;2.3;1.9;;;;;;;23.87;45.87793;936.6142;;;;
2021/10/02 11:26:53;;;;;;;3.9;2.2;;;;;;;24.22;44.64258;936.5051;;;;
2021/10/02 11:29:18;;;;;;;3.2;2.4;;;;;;;24.51;43.18555;936.465;;;;
2021/10/02 11:31:43;;;;;;;2.9;2.2;;;;;;;24.17;41.65723;936.4147;;;;
2021/10/02 11:34:08;;;;;;;3;2.4;;;;;;;23.63;43.48828;936.3817;;;;
2021/10/02 11:36:35;;;;;;;3.2;2.2;;;;;;;23.8;45.95313;936.3473;;;;
2021/10/02 11:38:58;;;;;;;2.9;2;;;;;;;24.04;43.45801;936.2922;;;;
2021/10/02 11:41:24;;;;;;;2.7;2.1;;;;;;;23.84;44.5918;936.2442;;;;
2021/10/02 11:43:49;;;;;;;2.4;2.2;;;;;;;23.87;44.77051;936.2786;;;;
2021/10/02 11:46:14;;;;;;;2;1.8;;;;;;;23.58;45.56543;936.2584;;;;
2021/10/02 11:48:41;;;;;;;3;2.2;;;;;;;23.62;45.40527;936.1873;;;;
2021/10/02 11:51:05;;;;;;;2.6;2;;;;;;;23.55;45.38574;936.0862;;;;
2021/10/02 11:53:30;;;;;;;2.8;2.2;;;;;;;23.28;45.91113;936.0538;;;;
2021/10/02 11:55:58;;;;;;;2.9;2.3;;;;;;;22.96;46.80566;936.019;;;;
2021/10/02 11:58:26;;;;;;;3.5;2;;;;;;;22.94;47.59082;935.9586;;;;
2021/10/02 12:00:50;;;;;;;3.2;2.5;;;;;;;23.18;48.55762;935.9487;;;;
2021/10/02 12:03:16;;;;;;;6.1;2.3;;;;;;;23.76;46.19531;935.8417;;;;
2021/10/02 12:05:41;;;;;;;2.4;2.2;;;;;;;23.81;44.2002;935.8198;;;;
2021/10/02 12:08:06;;;;;;;2.9;2.3;;;;;;;23.78;45.43359;935.7644;;;;
2021/10/02 12:10:31;;;;;;;9;3.2;;;;;;;23.51;47.41699;935.7222;;;;
2021/10/02 12:12:57;;;;;;;2.8;2.3;;;;;;;23.79;45.30566;935.7464;;;;
2021/10/02 12:15:21;;;;;;;3.1;2;;;;;;;24.27;43.70508;935.7062;;;;
2021/10/02 12:17:46;;;;;;;2.6;2.3;;;;;;;23.64;46.83008;935.6902;;;;
2021/10/02 12:20:11;;;;;;;2.8;2.2;;;;;;;23.5;48.00391;935.647;;;;
2021/10/02 12:22:38;;;;;;;3.6;2.4;;;;;;;23.58;47.17773;935.6485;;;;
2021/10/02 12:25:03;;;;;;;4.4;2.2;;;;;;;23.55;48.87891;935.6749;;;;
2021/10/02 12:27:29;;;;;;;2.4;2.1;;;;;;;23.45;47.69336;935.597;;;;
2021/10/02 12:29:57;;;;;;;3.5;2.5;;;;;;;23.36;48.3418;935.6153;;;;
2021/10/02 12:32:20;;;;;;;2.2;1.9;;;;;;;23.4;47.41602;935.5488;;;;
2021/10/02 12:34:45;;;;;;;2.3;2;;;;;;;23.4;47.39355;935.5502;;;;
2021/10/02 12:37:10;;;;;;;2.4;2;;;;;;;23.44;48.67969;935.5008;;;;
2021/10/02 12:39:35;;;;;;;2.8;2.2;;;;;;;23.25;49.69238;935.5325;;;;
2021/10/02 12:42:00;;;;;;;2.6;2;;;;;;;23.32;49.06543;935.4565;;;;
2021/10/02 12:44:25;;;;;;;4.1;2.2;;;;;;;23.35;47.5166;935.3901;;;;
2021/10/02 12:46:51;;;;;;;2.3;2;;;;;;;23.3;49.45215;935.3555;;;;
2021/10/02 12:49:17;;;;;;;2.3;2.1;;;;;;;23.32;49.23047;935.3295;;;;
2021/10/02 12:51:42;;;;;;;2.9;1.9;;;;;;;23.35;49.02246;935.2883;;;;
2021/10/02 12:54:07;;;;;;;5.3;2.8;;;;;;;23.54;48.25586;935.2208;;;;
2021/10/02 12:56:33;;;;;;;3;2.2;;;;;;;23.41;49.91016;935.2078;;;;
2021/10/02 12:59:01;;;;;;;2.4;2.1;;;;;;;23.08;48.4043;935.171;;;;
2021/10/02 13:01:26;;;;;;;2.2;1.9;;;;;;;23.21;49.91309;935.1666;;;;
2021/10/02 13:03:51;;;;;;;3.4;2.2;;;;;;;23.4;49.43848;935.1149;;;;
2021/10/02 13:06:17;;;;;;;3;2.1;;;;;;;23.7;48.58984;935.0248;;;;
2021/10/02 13:08:42;;;;;;;2.5;2.3;;;;;;;23.51;49.76855;934.9761;;;;
2021/10/02 13:11:07;;;;;;;8.5;2.5;;;;;;;23.78;46.96289;934.9484;;;;
2021/10/02 13:13:32;;;;;;;2.3;2.1;;;;;;;23.95;47.61816;934.9089;;;;
2021/10/02 13:15:58;;;;;;;2.8;2.2;;;;;;;24.22;46.14941;934.8574;;;;
2021/10/02 13:18:24;;;;;;;2.6;2.2;;;;;;;24.21;46.48926;934.8214;;;;
2021/10/02 13:20:50;;;;;;;3.7;2.4;;;;;;;24.5;46.53125;934.8201;;;;
2021/10/02 13:23:15;;;;;;;3.2;2.4;;;;;;;24.18;47.91309;934.8233;;;;
2021/10/02 13:25:40;;;;;;;3;2.3;;;;;;;23.8;50.44824;934.8169;;;;
2021/10/02 13:28:05;;;;;;;2.3;2.1;;;;;;;25.37;44.47363;934.8237;;;;
2021/10/02 13:30:31;;;;;;;2.6;2;;;;;;;28.14;38.84277;934.7358;;;;
2021/10/02 13:32:55;;;;;;;3.1;2.3;;;;;;;29.79;35.63379;934.7393;;;;
2021/10/02 13:35:21;;;;;;;2.2;2;;;;;;;31.35;33.83105;934.7692;;;;
2021/10/02 13:37:47;;;;;;;2.5;2;;;;;;;32.99;30.18164;934.7516;;;;
2021/10/02 13:40:12;;;;;;;3.6;1.9;;;;;;;33.31;29.19336;934.6696;;;;
2021/10/02 13:42:37;;;;;;;4.4;2.4;;;;;;;33.82;29.34668;934.6139;;;;
2021/10/02 13:45:02;;;;;;;2.3;2;;;;;;;33.75;30.48438;934.5391;;;;
2021/10/02 13:47:28;;;;;;;2.2;2;;;;;;;34.21;27.90234;934.5451;;;;
2021/10/02 13:49:53;;;;;;;2.3;2.1;;;;;;;34.43;27.6748;934.488;;;;
2021/10/02 13:52:18;;;;;;;186.1;31.9;;;;;;;34.95;26.98242;934.4667;;;;
2021/10/02 13:55:34;;;;;;;201.9;37.4;;;;;;;34.22;27.51758;934.4735;;;;
2021/10/02 13:57:53;;;;;;;29.9;8.6;;;;;;;34.33;27.91016;934.3745;;;;
2021/10/02 14:00:18;;;;;;;31.9;10.2;;;;;;;34.64;27.04883;934.3348;;;;
2021/10/02 14:02:43;;;;;;;451;100.2;;;;;;;34.47;27.76172;934.3395;;;;
2021/10/02 14:05:08;;;;;;;38.4;7.5;;;;;;;31.26;32.10156;934.3069;;;;
2021/10/02 14:07:33;;;;;;;2.3;2.1;;;;;;;32.19;30.59668;934.2821;;;;
2021/10/02 14:09:59;;;;;;;114.4;25.2;;;;;;;32.54;30.03223;934.3058;;;;
2021/10/02 14:12:24;;;;;;;36.2;11.1;;;;;;;32.18;30.46387;934.2256;;;;
2021/10/02 14:14:51;;;;;;;38.4;9.7;;;;;;;32.14;30.2207;934.1839;;;;
2021/10/02 14:17:18;;;;;;;142.4;31.8;;;;;;;31.9;31.04492;934.1597;;;;
2021/10/02 14:19:41;;;;;;;65.8;17.1;;;;;;;32.28;30.79492;934.1752;;;;
2021/10/02 14:22:06;;;;;;;6.6;3.6;;;;;;;31.31;32.0332;934.1914;;;;
2021/10/02 14:24:31;;;;;;;6.4;2.9;;;;;;;30.37;33.30371;934.1437;;;;
2021/10/02 14:26:57;;;;;;;8.9;4.3;;;;;;;29.69;34.42188;934.1873;;;;
2021/10/02 14:29:22;;;;;;;104.5;22.9;;;;;;;29.66;34.76563;934.1258;;;;
2021/10/02 14:31:49;;;;;;;700.1;156.3;;;;;;;30.85;32.66992;934.1401;;;;
2021/10/02 14:34:16;;;;;;;1480.8;368.6;;;;;;;30.78;33.21484;934.1345;;;;
2021/10/02 14:36:39;;;;;;;802.7;209.5;;;;;;;31.41;32.23242;934.1231;;;;
2021/10/02 14:39:04;;;;;;;736.8;186.9;;;;;;;31.14;32.7627;934.0613;;;;
2021/10/02 14:41:29;;;;;;;27;9.1;;;;;;;31.57;32.42285;934.1028;;;;
2021/10/02 14:43:54;;;;;;;51.5;16.4;;;;;;;32.06;31.64258;934.1055;;;;
2021/10/02 14:46:20;;;;;;;192.5;44.5;;;;;;;32.01;31.91406;934.0581;;;;
2021/10/02 14:48:45;;;;;;;159;35;;;;;;;31.37;31.78516;934.1119;;;;
2021/10/02 14:51:10;;;;;;;46.3;13.2;;;;;;;30.68;33.09961;934.1191;;;;
2021/10/02 14:53:35;;;;;;;27.5;8.3;;;;;;;29.67;34.40918;934.128;;;;
2021/10/02 14:56:01;;;;;;;18.8;6.7;;;;;;;28.72;36.08594;934.1174;;;;
2021/10/02 14:58:26;;;;;;;15.2;5;;;;;;;27.85;37.58398;934.1077;;;;
2021/10/02 15:00:54;;;;;;;2.5;2.3;;;;;;;27.3;39.26855;934.0667;;;;
2021/10/02 15:03:18;;;;;;;2.5;2.3;;;;;;;26.9;40.27734;934.0645;;;;
2021/10/02 15:05:43;;;;;;;2.4;2;;;;;;;26.48;41.68359;934.0775;;;;
2021/10/02 15:08:08;;;;;;;2.2;2;;;;;;;26.08;42.5918;934.092;;;;
2021/10/02 15:10:34;;;;;;;3.3;2.2;;;;;;;25.86;42.56055;934.1359;;;;
2021/10/02 15:13:00;;;;;;;4;2.6;;;;;;;25.36;44.23633;934.1387;;;;
2021/10/02 15:15:26;;;;;;;2.8;2.4;;;;;;;24.74;45.02344;934.1536;;;;
2021/10/02 15:17:51;;;;;;;2.9;2.2;;;;;;;24.57;45.87891;934.1609;;;;
2021/10/02 15:20:17;;;;;;;2.9;2.4;;;;;;;24.56;45.7373;934.1915;;;;
2021/10/02 15:22:42;;;;;;;3;2.3;;;;;;;24.02;47.37598;934.1127;;;;
2021/10/02 15:25:10;;;;;;;3.7;2.5;;;;;;;23.58;48.1416;934.108;;;;
2021/10/02 15:27:35;;;;;;;3.3;2.4;;;;;;;23.55;48.73828;934.1075;;;;
2021/10/02 15:30:01;;;;;;;2.8;2.5;;;;;;;23.32;49.30078;934.1042;;;;
2021/10/02 15:32:26;;;;;;;3.4;2.8;;;;;;;23.35;49.1748;934.0623;;;;
2021/10/02 15:34:50;;;;;;;4.9;3;;;;;;;23.17;50.94043;933.9436;;;;
2021/10/02 15:37:16;;;;;;;4.2;2.7;;;;;;;23.08;51.12988;933.9803;;;;
2021/10/02 15:39:41;;;;;;;4.8;2.8;;;;;;;22.81;51.61719;933.941;;;;
2021/10/02 15:42:07;;;;;;;4;3.1;;;;;;;22.65;52.84082;933.9891;;;;
2021/10/02 15:44:33;;;;;;;6.5;3.5;;;;;;;22.41;53.97559;933.9442;;;;
2021/10/02 15:46:58;;;;;;;4.7;3.2;;;;;;;22.33;54.60938;933.965;;;;
2021/10/02 15:49:23;;;;;;;4.7;4;;;;;;;22;54.95508;934.0005;;;;
2021/10/02 15:51:48;;;;;;;5;3.1;;;;;;;21.88;56.08984;933.9405;;;;
2021/10/02 15:54:13;;;;;;;4.7;3.1;;;;;;;21.79;57.15625;933.8816;;;;
2021/10/02 15:56:39;;;;;;;6;3.3;;;;;;;21.63;57.14746;933.8646;;;;
2021/10/02 15:59:04;;;;;;;5.6;3.3;;;;;;;21.43;58.56055;933.9567;;;;
2021/10/02 16:01:30;;;;;;;4.9;3.2;;;;;;;21.14;60.42871;934.0156;;;;
2021/10/02 16:03:56;;;;;;;4.6;3;;;;;;;20.91;60.99414;933.9792;;;;